YBCS

Cairns International Airport

Cairns, Australia
TAF YBCS 210608Z 2106/2206 14012KT 9999 FEW040
Issued Valid From Valid To
Jun-21 @ 06:08 UTC
(4 hours ago)
Jun-21 @ 06:00 UTC
(4 hours ago)
Jun-22 @ 06:00 UTC
(in 20 hours)
Jun-21 @ 06:00 to Jun-22 @ 06:00
TAF YBCS 210608Z 2106/2206 14012KT 9999 FEW040
Wind Visibility Clouds
140° at 12 knots 10,000+ meters
  • Few at 4,000' AGL
TAF YBCS 210608Z 2106/2206 14012KT 9999 FEW040
Issued Jun-21 @ 06:08 UTC
(4 hours ago)
Valid From Jun-21 @ 06:00 UTC
(4 hours ago)
Valid To Jun-22 @ 06:00 UTC
(in 20 hours)
Jun-21 @ 06:00 - Jun-22 @ 06:00
Wind Visibility
140° at 12 knots 10,000+ meters
Clouds
  • Few at 4,000' AGL